sensor_id;sensor_type;location;lat;lon;timestamp;temperature;humidity
21393;DHT22;10857;52.228;21.026;2022-10-31T07:45:21;10.40;99.90
21393;DHT22;10857;52.228;21.026;2022-10-31T07:48:09;10.30;99.90
21393;DHT22;10857;52.228;21.026;2022-10-31T07:50:55;10.30;99.90
21393;DHT22;10857;52.228;21.026;2022-10-31T07:53:40;10.20;99.90
21393;DHT22;10857;52.228;21.026;2022-10-31T07:56:21;10.30;99.90
21393;DHT22;10857;52.228;21.026;2022-10-31T07:58:48;10.20;99.90
21393;DHT22;10857;52.228;21.026;2022-10-31T08:01:15;10.20;99.90
21393;DHT22;10857;52.228;21.026;2022-10-31T08:03:51;10.30;99.90
21393;DHT22;10857;52.228;21.026;2022-10-31T08:06:41;10.40;99.90
21393;DHT22;10857;52.228;21.026;2022-10-31T08:09:19;10.50;99.90
21393;DHT22;10857;52.228;21.026;2022-10-31T08:11:48;10.70;99.90
21393;DHT22;10857;52.228;21.026;2022-10-31T08:14:15;10.80;99.90
21393;DHT22;10857;52.228;21.026;2022-10-31T08:16:42;11.00;99.90
21393;DHT22;10857;52.228;21.026;2022-10-31T08:19:11;11.00;99.90
21393;DHT22;10857;52.228;21.026;2022-10-31T08:21:39;11.20;99.90
21393;DHT22;10857;52.228;21.026;2022-10-31T08:24:08;11.30;99.90
21393;DHT22;10857;52.228;21.026;2022-10-31T08:26:35;11.40;99.90
21393;DHT22;10857;52.228;21.026;2022-10-31T08:29:03;11.50;99.90
21393;DHT22;10857;52.228;21.026;2022-10-31T08:31:33;11.50;99.90
21393;DHT22;10857;52.228;21.026;2022-10-31T08:34:23;11.60;99.90
21393;DHT22;10857;52.228;21.026;2022-10-31T08:36:51;11.50;99.90
21393;DHT22;10857;52.228;21.026;2022-10-31T08:39:26;11.50;99.90
21393;DHT22;10857;52.228;21.026;2022-10-31T08:41:53;11.60;99.90
21393;DHT22;10857;52.228;21.026;2022-10-31T08:44:20;11.60;99.90
21393;DHT22;10857;52.228;21.026;2022-10-31T08:46:47;11.60;99.90
21393;DHT22;10857;52.228;21.026;2022-10-31T08:49:14;11.60;99.90
21393;DHT22;10857;52.228;21.026;2022-10-31T08:51:42;11.60;99.90
21393;DHT22;10857;52.228;21.026;2022-10-31T08:54:09;11.70;99.90
21393;DHT22;10857;52.228;21.026;2022-10-31T08:56:53;11.70;99.90
21393;DHT22;10857;52.228;21.026;2022-10-31T08:59:37;11.90;99.90
21393;DHT22;10857;52.228;21.026;2022-10-31T09:02:22;11.90;99.90
21393;DHT22;10857;52.228;21.026;2022-10-31T09:04:53;12.10;99.90
21393;DHT22;10857;52.228;21.026;2022-10-31T09:07:19;12.20;99.90
21393;DHT22;10857;52.228;21.026;2022-10-31T09:09:48;12.20;99.90
21393;DHT22;10857;52.228;21.026;2022-10-31T09:12:16;12.30;99.90
21393;DHT22;10857;52.228;21.026;2022-10-31T09:15:07;12.30;99.90
21393;DHT22;10857;52.228;21.026;2022-10-31T09:17:47;12.30;99.90
21393;DHT22;10857;52.228;21.026;2022-10-31T09:20:34;12.50;99.90
21393;DHT22;10857;52.228;21.026;2022-10-31T09:23:06;12.50;99.90
21393;DHT22;10857;52.228;21.026;2022-10-31T09:25:37;12.50;99.90
21393;DHT22;10857;52.228;21.026;2022-10-31T09:28:23;12.60;99.90
21393;DHT22;10857;52.228;21.026;2022-10-31T09:30:53;12.60;99.90
21393;DHT22;10857;52.228;21.026;2022-10-31T09:33:42;12.70;99.90
21393;DHT22;10857;52.228;21.026;2022-10-31T09:36:30;12.80;99.90
21393;DHT22;10857;52.228;21.026;2022-10-31T09:38:57;12.90;99.90
21393;DHT22;10857;52.228;21.026;2022-10-31T09:46:49;13.10;99.90
21393;DHT22;10857;52.228;21.026;2022-10-31T09:52:28;13.10;99.90
21393;DHT22;10857;52.228;21.026;2022-10-31T09:55:09;13.10;99.90
21393;DHT22;10857;52.228;21.026;2022-10-31T09:57:43;13.20;99.90
21393;DHT22;10857;52.228;21.026;2022-10-31T10:00:19;13.30;99.90
21393;DHT22;10857;52.228;21.026;2022-10-31T10:05:25;13.60;99.90
21393;DHT22;10857;52.228;21.026;2022-10-31T10:08:11;13.60;99.90
21393;DHT22;10857;52.228;21.026;2022-10-31T10:11:21;13.90;99.90
21393;DHT22;10857;52.228;21.026;2022-10-31T10:25:23;14.50;99.90
21393;DHT22;10857;52.228;21.026;2022-10-31T10:33:12;14.50;99.90
21393;DHT22;10857;52.228;21.026;2022-10-31T10:36:01;14.60;99.90
21393;DHT22;10857;52.228;21.026;2022-10-31T10:38:58;14.70;99.90
21393;DHT22;10857;52.228;21.026;2022-10-31T10:41:31;14.60;99.90
21393;DHT22;10857;52.228;21.026;2022-10-31T10:44:00;14.70;99.90
21393;DHT22;10857;52.228;21.026;2022-10-31T10:46:40;14.70;99.90
21393;DHT22;10857;52.228;21.026;2022-10-31T10:49:31;14.80;99.90
21393;DHT22;10857;52.228;21.026;2022-10-31T10:55:32;14.90;99.90
21393;DHT22;10857;52.228;21.026;2022-10-31T10:58:10;15.10;99.90
21393;DHT22;10857;52.228;21.026;2022-10-31T11:00:44;15.20;99.90
21393;DHT22;10857;52.228;21.026;2022-10-31T11:03:14;15.10;99.90
21393;DHT22;10857;52.228;21.026;2022-10-31T11:05:48;15.30;99.90
21393;DHT22;10857;52.228;21.026;2022-10-31T11:08:33;15.50;99.90
21393;DHT22;10857;52.228;21.026;2022-10-31T11:11:23;15.60;99.90
21393;DHT22;10857;52.228;21.026;2022-10-31T11:14:04;15.70;99.90
21393;DHT22;10857;52.228;21.026;2022-10-31T11:16:37;15.80;99.90
21393;DHT22;10857;52.228;21.026;2022-10-31T11:19:25;16.00;99.90
21393;DHT22;10857;52.228;21.026;2022-10-31T11:21:54;16.10;99.90
21393;DHT22;10857;52.228;21.026;2022-10-31T11:24:23;16.30;99.90
21393;DHT22;10857;52.228;21.026;2022-10-31T11:26:52;16.20;99.90
21393;DHT22;10857;52.228;21.026;2022-10-31T11:29:29;16.20;99.90
21393;DHT22;10857;52.228;21.026;2022-10-31T11:31:57;16.30;99.90
21393;DHT22;10857;52.228;21.026;2022-10-31T11:34:32;16.60;99.90
21393;DHT22;10857;52.228;21.026;2022-10-31T11:37:14;16.50;99.90
21393;DHT22;10857;52.228;21.026;2022-10-31T11:42:27;16.70;99.90
21393;DHT22;10857;52.228;21.026;2022-10-31T11:44:55;16.60;99.90
21393;DHT22;10857;52.228;21.026;2022-10-31T11:47:30;16.40;99.90
21393;DHT22;10857;52.228;21.026;2022-10-31T11:50:02;16.30;99.90
21393;DHT22;10857;52.228;21.026;2022-10-31T11:52:38;16.50;99.90
21393;DHT22;10857;52.228;21.026;2022-10-31T11:57:47;16.80;99.90
21393;DHT22;10857;52.228;21.026;2022-10-31T12:02:51;16.80;99.90
21393;DHT22;10857;52.228;21.026;2022-10-31T12:05:31;16.90;99.90
21393;DHT22;10857;52.228;21.026;2022-10-31T12:07:59;17.10;99.90
21393;DHT22;10857;52.228;21.026;2022-10-31T12:10:48;17.00;99.90
21393;DHT22;10857;52.228;21.026;2022-10-31T12:16:20;17.00;99.90
21393;DHT22;10857;52.228;21.026;2022-10-31T12:19:01;17.20;99.90
21393;DHT22;10857;52.228;21.026;2022-10-31T12:30:16;17.20;99.90
21393;DHT22;10857;52.228;21.026;2022-10-31T12:35:30;17.10;99.90
21393;DHT22;10857;52.228;21.026;2022-10-31T12:38:25;17.00;99.90
21393;DHT22;10857;52.228;21.026;2022-10-31T12:47:08;17.20;99.90
21393;DHT22;10857;52.228;21.026;2022-10-31T12:55:32;17.40;99.90
21393;DHT22;10857;52.228;21.026;2022-10-31T12:58:07;17.50;99.90
21393;DHT22;10857;52.228;21.026;2022-10-31T13:00:38;17.50;99.90
21393;DHT22;10857;52.228;21.026;2022-10-31T13:03:30;17.60;99.90
21393;DHT22;10857;52.228;21.026;2022-10-31T13:06:07;17.60;99.90
21393;DHT22;10857;52.228;21.026;2022-10-31T13:08:41;17.50;99.90
21393;DHT22;10857;52.228;21.026;2022-10-31T13:11:15;17.50;99.90
21393;DHT22;10857;52.228;21.026;2022-10-31T13:14:07;17.50;99.90
21393;DHT22;10857;52.228;21.026;2022-10-31T13:16:43;17.50;99.90
21393;DHT22;10857;52.228;21.026;2022-10-31T13:19:28;17.50;99.90
21393;DHT22;10857;52.228;21.026;2022-10-31T13:22:21;17.40;99.90
21393;DHT22;10857;52.228;21.026;2022-10-31T13:28:02;17.50;99.90
21393;DHT22;10857;52.228;21.026;2022-10-31T13:30:33;17.40;99.90
21393;DHT22;10857;52.228;21.026;2022-10-31T13:33:14;17.30;99.90
21393;DHT22;10857;52.228;21.026;2022-10-31T13:44:24;16.60;99.90
21393;DHT22;10857;52.228;21.026;2022-10-31T13:46:53;16.30;99.90
21393;DHT22;10857;52.228;21.026;2022-10-31T13:54:41;16.10;99.90
21393;DHT22;10857;52.228;21.026;2022-10-31T13:57:22;16.20;99.90
21393;DHT22;10857;52.228;21.026;2022-10-31T14:00:23;16.20;99.90
21393;DHT22;10857;52.228;21.026;2022-10-31T14:02:50;16.00;99.90
21393;DHT22;10857;52.228;21.026;2022-10-31T14:05:33;16.00;99.90
21393;DHT22;10857;52.228;21.026;2022-10-31T14:08:05;15.80;99.90
21393;DHT22;10857;52.228;21.026;2022-10-31T14:10:37;15.90;99.90
21393;DHT22;10857;52.228;21.026;2022-10-31T14:15:36;15.70;99.90
21393;DHT22;10857;52.228;21.026;2022-10-31T14:18:06;15.70;99.90
21393;DHT22;10857;52.228;21.026;2022-10-31T14:20:41;15.80;99.90
21393;DHT22;10857;52.228;21.026;2022-10-31T14:23:31;15.70;99.90
21393;DHT22;10857;52.228;21.026;2022-10-31T14:26:30;15.50;99.90
21393;DHT22;10857;52.228;21.026;2022-10-31T14:31:45;15.50;99.90
21393;DHT22;10857;52.228;21.026;2022-10-31T14:50:58;15.00;99.90
21393;DHT22;10857;52.228;21.026;2022-10-31T14:53:35;15.00;99.90
21393;DHT22;10857;52.228;21.026;2022-10-31T14:56:09;15.00;99.90
21393;DHT22;10857;52.228;21.026;2022-10-31T14:58:42;14.90;99.90
21393;DHT22;10857;52.228;21.026;2022-10-31T15:01:31;14.80;99.90
21393;DHT22;10857;52.228;21.026;2022-10-31T15:04:16;14.70;99.90
21393;DHT22;10857;52.228;21.026;2022-10-31T15:09:34;14.80;99.90
21393;DHT22;10857;52.228;21.026;2022-10-31T15:12:25;14.70;99.90
21393;DHT22;10857;52.228;21.026;2022-10-31T15:14:53;14.80;99.90
21393;DHT22;10857;52.228;21.026;2022-10-31T15:17:25;14.60;99.90
21393;DHT22;10857;52.228;21.026;2022-10-31T15:19:55;14.60;99.90
21393;DHT22;10857;52.228;21.026;2022-10-31T15:22:23;14.50;99.90
21393;DHT22;10857;52.228;21.026;2022-10-31T15:24:54;14.50;99.90
21393;DHT22;10857;52.228;21.026;2022-10-31T15:27:24;14.50;99.90
21393;DHT22;10857;52.228;21.026;2022-10-31T15:29:58;14.40;99.90
21393;DHT22;10857;52.228;21.026;2022-10-31T15:32:44;14.40;99.90
21393;DHT22;10857;52.228;21.026;2022-10-31T15:35:29;14.30;99.90
21393;DHT22;10857;52.228;21.026;2022-10-31T15:37:57;14.30;99.90
21393;DHT22;10857;52.228;21.026;2022-10-31T15:40:29;14.20;99.90
21393;DHT22;10857;52.228;21.026;2022-10-31T15:43:04;14.30;99.90
21393;DHT22;10857;52.228;21.026;2022-10-31T15:45:34;14.30;99.90
21393;DHT22;10857;52.228;21.026;2022-10-31T15:48:26;14.30;99.90
21393;DHT22;10857;52.228;21.026;2022-10-31T15:50:56;14.30;99.90
21393;DHT22;10857;52.228;21.026;2022-10-31T15:56:02;14.30;99.90
21393;DHT22;10857;52.228;21.026;2022-10-31T15:58:47;14.20;99.90
21393;DHT22;10857;52.228;21.026;2022-10-31T16:04:02;14.10;99.90
21393;DHT22;10857;52.228;21.026;2022-10-31T16:06:34;14.00;99.90
21393;DHT22;10857;52.228;21.026;2022-10-31T16:09:21;14.00;99.90
21393;DHT22;10857;52.228;21.026;2022-10-31T16:12:15;14.00;99.90
21393;DHT22;10857;52.228;21.026;2022-10-31T16:14:51;14.00;99.90
21393;DHT22;10857;52.228;21.026;2022-10-31T16:17:27;14.00;99.90
21393;DHT22;10857;52.228;21.026;2022-10-31T16:20:22;14.00;99.90
21393;DHT22;10857;52.228;21.026;2022-10-31T16:23:01;13.90;99.90
21393;DHT22;10857;52.228;21.026;2022-10-31T16:25:52;13.90;99.90
21393;DHT22;10857;52.228;21.026;2022-10-31T16:28:28;13.80;99.90
21393;DHT22;10857;52.228;21.026;2022-10-31T16:31:26;13.70;99.90
21393;DHT22;10857;52.228;21.026;2022-10-31T16:34:17;13.70;99.90
21393;DHT22;10857;52.228;21.026;2022-10-31T16:36:54;13.70;99.90
21393;DHT22;10857;52.228;21.026;2022-10-31T16:39:30;13.80;99.90
21393;DHT22;10857;52.228;21.026;2022-10-31T16:42:07;13.70;99.90
21393;DHT22;10857;52.228;21.026;2022-10-31T16:44:39;13.70;99.90
21393;DHT22;10857;52.228;21.026;2022-10-31T16:47:16;13.70;99.90
21393;DHT22;10857;52.228;21.026;2022-10-31T16:49:49;13.70;99.90
21393;DHT22;10857;52.228;21.026;2022-10-31T16:52:20;13.70;99.90
21393;DHT22;10857;52.228;21.026;2022-10-31T16:54:49;13.70;99.90
21393;DHT22;10857;52.228;21.026;2022-10-31T16:57:27;13.70;99.90
21393;DHT22;10857;52.228;21.026;2022-10-31T16:59:57;13.70;99.90
21393;DHT22;10857;52.228;21.026;2022-10-31T17:02:42;13.70;99.90
21393;DHT22;10857;52.228;21.026;2022-10-31T17:06:12;13.60;99.90
21393;DHT22;10857;52.228;21.026;2022-10-31T17:08:49;13.60;99.90
21393;DHT22;10857;52.228;21.026;2022-10-31T17:11:49;13.70;99.90
21393;DHT22;10857;52.228;21.026;2022-10-31T17:14:19;13.70;99.90
21393;DHT22;10857;52.228;21.026;2022-10-31T17:17:20;13.70;99.90
21393;DHT22;10857;52.228;21.026;2022-10-31T17:19:48;13.70;99.90
21393;DHT22;10857;52.228;21.026;2022-10-31T17:22:15;13.60;99.90
21393;DHT22;10857;52.228;21.026;2022-10-31T17:24:44;13.60;99.90
21393;DHT22;10857;52.228;21.026;2022-10-31T17:27:24;13.50;99.90
21393;DHT22;10857;52.228;21.026;2022-10-31T17:29:51;13.50;99.90
21393;DHT22;10857;52.228;21.026;2022-10-31T17:32:40;13.50;99.90
21393;DHT22;10857;52.228;21.026;2022-10-31T17:35:08;13.50;99.90
21393;DHT22;10857;52.228;21.026;2022-10-31T17:37:36;13.50;99.90
21393;DHT22;10857;52.228;21.026;2022-10-31T17:40:03;13.40;99.90
21393;DHT22;10857;52.228;21.026;2022-10-31T17:42:31;13.40;99.90
21393;DHT22;10857;52.228;21.026;2022-10-31T17:45:01;13.40;99.90
21393;DHT22;10857;52.228;21.026;2022-10-31T17:47:29;13.40;99.90
21393;DHT22;10857;52.228;21.026;2022-10-31T17:49:56;13.30;99.90
21393;DHT22;10857;52.228;21.026;2022-10-31T17:52:24;13.30;99.90
21393;DHT22;10857;52.228;21.026;2022-10-31T17:54:51;13.30;99.90
21393;DHT22;10857;52.228;21.026;2022-10-31T17:57:18;13.20;99.90
21393;DHT22;10857;52.228;21.026;2022-10-31T17:59:45;13.20;99.90
21393;DHT22;10857;52.228;21.026;2022-10-31T18:02:13;13.20;99.90
21393;DHT22;10857;52.228;21.026;2022-10-31T18:04:41;13.20;99.90
21393;DHT22;10857;52.228;21.026;2022-10-31T18:07:18;13.20;99.90
21393;DHT22;10857;52.228;21.026;2022-10-31T18:09:49;13.20;99.90
21393;DHT22;10857;52.228;21.026;2022-10-31T18:12:16;13.30;99.90
21393;DHT22;10857;52.228;21.026;2022-10-31T18:14:43;13.30;99.90
21393;DHT22;10857;52.228;21.026;2022-10-31T18:18:14;13.30;99.90
21393;DHT22;10857;52.228;21.026;2022-10-31T18:20:41;13.30;99.90
21393;DHT22;10857;52.228;21.026;2022-10-31T18:23:11;13.30;99.90
21393;DHT22;10857;52.228;21.026;2022-10-31T18:25:39;13.30;99.90
21393;DHT22;10857;52.228;21.026;2022-10-31T18:28:11;13.30;99.90
21393;DHT22;10857;52.228;21.026;2022-10-31T18:30:39;13.30;99.90
21393;DHT22;10857;52.228;21.026;2022-10-31T18:33:09;13.40;99.90
21393;DHT22;10857;52.228;21.026;2022-10-31T18:35:49;13.40;99.90
21393;DHT22;10857;52.228;21.026;2022-10-31T18:38:28;13.40;99.90
21393;DHT22;10857;52.228;21.026;2022-10-31T18:40:59;13.50;99.90
21393;DHT22;10857;52.228;21.026;2022-10-31T18:43:31;13.50;99.90
21393;DHT22;10857;52.228;21.026;2022-10-31T18:46:15;13.50;99.90
21393;DHT22;10857;52.228;21.026;2022-10-31T18:49:06;13.50;99.90
21393;DHT22;10857;52.228;21.026;2022-10-31T18:51:35;13.50;99.90
21393;DHT22;10857;52.228;21.026;2022-10-31T18:54:12;13.60;99.90
21393;DHT22;10857;52.228;21.026;2022-10-31T18:56:56;13.60;99.90
21393;DHT22;10857;52.228;21.026;2022-10-31T18:59:29;13.60;99.90
21393;DHT22;10857;52.228;21.026;2022-10-31T19:02:08;13.60;99.90
21393;DHT22;10857;52.228;21.026;2022-10-31T19:04:51;13.60;99.90
21393;DHT22;10857;52.228;21.026;2022-10-31T19:07:34;13.60;99.90
21393;DHT22;10857;52.228;21.026;2022-10-31T19:10:01;13.60;99.90
21393;DHT22;10857;52.228;21.026;2022-10-31T19:12:44;13.60;99.90
21393;DHT22;10857;52.228;21.026;2022-10-31T19:15:41;13.60;99.90
21393;DHT22;10857;52.228;21.026;2022-10-31T19:18:10;13.60;99.90
21393;DHT22;10857;52.228;21.026;2022-10-31T19:20:47;13.60;99.90
21393;DHT22;10857;52.228;21.026;2022-10-31T19:23:14;13.60;99.90
21393;DHT22;10857;52.228;21.026;2022-10-31T19:25:46;13.60;99.90
21393;DHT22;10857;52.228;21.026;2022-10-31T19:28:14;13.60;99.90
21393;DHT22;10857;52.228;21.026;2022-10-31T19:30:50;13.60;99.90
21393;DHT22;10857;52.228;21.026;2022-10-31T19:33:25;13.60;99.90
21393;DHT22;10857;52.228;21.026;2022-10-31T19:36:08;13.60;99.90
21393;DHT22;10857;52.228;21.026;2022-10-31T19:39:06;13.60;99.90
21393;DHT22;10857;52.228;21.026;2022-10-31T19:41:58;13.70;99.90
21393;DHT22;10857;52.228;21.026;2022-10-31T19:44:32;13.60;99.90
21393;DHT22;10857;52.228;21.026;2022-10-31T19:47:01;13.60;99.90
21393;DHT22;10857;52.228;21.026;2022-10-31T19:49:28;13.70;99.90
21393;DHT22;10857;52.228;21.026;2022-10-31T19:51:57;13.70;99.90
21393;DHT22;10857;52.228;21.026;2022-10-31T19:54:29;13.70;99.90
21393;DHT22;10857;52.228;21.026;2022-10-31T19:57:02;13.70;99.90
21393;DHT22;10857;52.228;21.026;2022-10-31T19:59:32;13.70;99.90
21393;DHT22;10857;52.228;21.026;2022-10-31T20:02:43;13.70;99.90
21393;DHT22;10857;52.228;21.026;2022-10-31T20:05:31;13.70;99.90
21393;DHT22;10857;52.228;21.026;2022-10-31T20:08:19;13.70;99.90
21393;DHT22;10857;52.228;21.026;2022-10-31T20:11:05;13.60;99.90
21393;DHT22;10857;52.228;21.026;2022-10-31T20:13:44;13.60;99.90
21393;DHT22;10857;52.228;21.026;2022-10-31T20:16:14;13.60;99.90
21393;DHT22;10857;52.228;21.026;2022-10-31T20:18:52;13.60;99.90
21393;DHT22;10857;52.228;21.026;2022-10-31T20:21:24;13.60;99.90
21393;DHT22;10857;52.228;21.026;2022-10-31T20:24:06;13.60;99.90
21393;DHT22;10857;52.228;21.026;2022-10-31T20:26:38;13.50;99.90
21393;DHT22;10857;52.228;21.026;2022-10-31T20:29:07;13.50;99.90
21393;DHT22;10857;52.228;21.026;2022-10-31T20:31:48;13.50;99.90
21393;DHT22;10857;52.228;21.026;2022-10-31T20:34:34;13.50;99.90
21393;DHT22;10857;52.228;21.026;2022-10-31T20:37:10;13.50;99.90
21393;DHT22;10857;52.228;21.026;2022-10-31T20:39:39;13.50;99.90
21393;DHT22;10857;52.228;21.026;2022-10-31T20:42:06;13.50;99.90
21393;DHT22;10857;52.228;21.026;2022-10-31T20:44:35;13.60;99.90
21393;DHT22;10857;52.228;21.026;2022-10-31T20:47:02;13.50;99.90
21393;DHT22;10857;52.228;21.026;2022-10-31T20:49:30;13.60;99.90
21393;DHT22;10857;52.228;21.026;2022-10-31T20:51:58;13.60;99.90
21393;DHT22;10857;52.228;21.026;2022-10-31T20:54:25;13.60;99.90
21393;DHT22;10857;52.228;21.026;2022-10-31T20:56:53;13.60;99.90
21393;DHT22;10857;52.228;21.026;2022-10-31T20:59:20;13.60;99.90
21393;DHT22;10857;52.228;21.026;2022-10-31T21:01:51;13.70;99.90
21393;DHT22;10857;52.228;21.026;2022-10-31T21:04:20;13.70;99.90
21393;DHT22;10857;52.228;21.026;2022-10-31T21:06:48;13.70;99.90
21393;DHT22;10857;52.228;21.026;2022-10-31T21:09:18;13.70;99.90
21393;DHT22;10857;52.228;21.026;2022-10-31T21:11:47;13.70;99.90
21393;DHT22;10857;52.228;21.026;2022-10-31T21:14:19;13.70;99.90
21393;DHT22;10857;52.228;21.026;2022-10-31T21:16:50;13.80;99.90
21393;DHT22;10857;52.228;21.026;2022-10-31T21:19:20;13.80;99.90
21393;DHT22;10857;52.228;21.026;2022-10-31T21:21:48;13.80;99.90
21393;DHT22;10857;52.228;21.026;2022-10-31T21:24:18;13.80;99.90
21393;DHT22;10857;52.228;21.026;2022-10-31T21:26:49;13.90;99.90
21393;DHT22;10857;52.228;21.026;2022-10-31T21:29:17;13.80;99.90
21393;DHT22;10857;52.228;21.026;2022-10-31T21:31:45;13.90;99.90
21393;DHT22;10857;52.228;21.026;2022-10-31T21:34:20;13.80;99.90
21393;DHT22;10857;52.228;21.026;2022-10-31T21:36:47;13.80;99.90
21393;DHT22;10857;52.228;21.026;2022-10-31T21:39:14;13.80;99.90
21393;DHT22;10857;52.228;21.026;2022-10-31T21:41:41;13.90;99.90
21393;DHT22;10857;52.228;21.026;2022-10-31T21:44:08;13.80;99.90
21393;DHT22;10857;52.228;21.026;2022-10-31T21:46:36;13.80;99.90
21393;DHT22;10857;52.228;21.026;2022-10-31T21:49:04;13.80;99.90
21393;DHT22;10857;52.228;21.026;2022-10-31T21:51:33;13.90;99.90
21393;DHT22;10857;52.228;21.026;2022-10-31T21:54:02;13.90;99.90
21393;DHT22;10857;52.228;21.026;2022-10-31T21:56:48;13.90;99.90
21393;DHT22;10857;52.228;21.026;2022-10-31T21:59:17;13.80;99.90
21393;DHT22;10857;52.228;21.026;2022-10-31T22:01:44;13.80;99.90
21393;DHT22;10857;52.228;21.026;2022-10-31T22:04:11;13.80;99.90
21393;DHT22;10857;52.228;21.026;2022-10-31T22:06:38;13.80;99.90
21393;DHT22;10857;52.228;21.026;2022-10-31T22:09:07;13.70;99.90
21393;DHT22;10857;52.228;21.026;2022-10-31T22:11:34;13.70;99.90
21393;DHT22;10857;52.228;21.026;2022-10-31T22:14:02;13.70;99.90
21393;DHT22;10857;52.228;21.026;2022-10-31T22:16:33;13.70;99.90
21393;DHT22;10857;52.228;21.026;2022-10-31T22:19:03;13.70;99.90
21393;DHT22;10857;52.228;21.026;2022-10-31T22:21:37;13.70;99.90
